Round Rock, Texas
Current Conditions -  °F | °C
As of 8:35 PM on Saturday 22 Nov 2014 (Local Time) from KEDC Reporting Station
Heavy Rain Heavy Rain  
Wind Chill: 59°   Ceiling: 500
Heat Index: 59°   Visibility: 1.7mi
Dew Point: 57°   Wind: 8mph
Humidity: 94%   Direction: 90°E
Pressure: 29.74"   Gusts: NA
Location:  30.51°N, 97.68°W
Report Text: KEDC 230235Z AUTO 09007KT 1 3/4SM +RA OVC005 15/14 A2974 RMK AO2 P0059
Loading
Personal Weather Stations






























Interactive Weather Map New forecast layout! Learn more

10-Day Weather Forecast

Advertisements
Track Severe Weather on mobile